Terminal Aerodrome Forecast
Issued by NWS

Home | Current Version | Previous Version | Text Only | Print | Product List | Glossary On
Versions: 1 2 3 4 5 6 7 8 9 10 11 12 13 14 15 16 17 18 19 20 21 22 23
697
FTUS46 KMFR 241144
TAFOTH
TAF
KOTH 241144Z 2412/2512 36003KT 1/4SM FG OVC002
     FM241600 35004KT 1SM BR OVC004
     FM241700 VRB04KT P6SM FEW004
     FM242000 35015G22KT P6SM SKC
     FM250300 03009KT P6SM SKC=

USA.gov is the U.S. government's official web portal to all federal, state and local government web resources and services.